Time;durP1;ratioP1;P1;durP2;ratioP2;P2;SDS_P1;SDS_P2;PMS_P1;PMS_P2;Temp;Humidity;BMP_temperature;BMP_pressure;BME280_temperature;BME280_humidity;BME280_pressure;Samples;Min_cycle;Max_cycle;Signal;HPM_P1;HPM_P2
2022/07/08 00:02:23;;;;;;;3.90;1.70;;;16.40;99.90;16.40;98824.00;;;;4865016;29;87754;-62
2022/07/08 00:04:50;;;;;;;6.05;1.77;;;16.40;99.90;16.50;98826.00;;;;4854238;29;86982;-62
2022/07/08 00:07:16;;;;;;;4.28;1.60;;;16.40;99.90;16.40;98824.00;;;;4867004;29;86720;-62
2022/07/08 00:09:42;;;;;;;3.33;1.40;;;16.40;99.90;16.40;98830.00;;;;4868290;29;87571;-62
2022/07/08 00:12:08;;;;;;;4.65;1.77;;;16.40;99.90;16.40;98823.00;;;;4867004;29;87404;-62
2022/07/08 00:14:34;;;;;;;4.43;1.55;;;16.30;99.90;16.40;98824.00;;;;4866776;29;87938;-62
2022/07/08 00:17:00;;;;;;;4.88;1.65;;;16.30;99.90;16.40;98827.00;;;;4867462;29;87108;-62
2022/07/08 00:19:26;;;;;;;2.83;1.55;;;16.30;99.90;16.40;98822.00;;;;4867552;29;87609;-62
2022/07/08 00:21:53;;;;;;;5.13;1.70;;;16.30;99.90;16.30;98822.00;;;;4867110;29;87208;-62
2022/07/08 00:24:19;;;;;;;2.83;1.65;;;16.30;99.90;16.30;98813.00;;;;4867552;29;87029;-62
2022/07/08 00:26:45;;;;;;;4.90;1.73;;;16.20;99.90;16.30;98811.00;;;;4867523;29;87507;-63
2022/07/08 00:29:13;;;;;;;2.42;1.42;;;16.20;99.90;16.30;98815.00;;;;4850165;29;87132;-64
2022/07/08 00:31:39;;;;;;;3.15;1.90;;;16.20;99.90;16.30;98811.00;;;;4867956;29;87261;-65
2022/07/08 00:34:05;;;;;;;5.78;1.70;;;16.20;99.90;16.20;98812.00;;;;4867435;29;86928;-63
2022/07/08 00:36:32;;;;;;;5.25;1.80;;;16.20;99.90;16.20;98806.00;;;;4866960;29;87016;-61
2022/07/08 00:38:58;;;;;;;4.20;1.77;;;16.20;99.90;16.20;98809.00;;;;4867056;29;89558;-61
2022/07/08 00:41:24;;;;;;;7.55;1.83;;;16.20;99.90;16.30;98806.00;;;;4866566;29;88151;-61
2022/07/08 00:43:50;;;;;;;3.80;1.50;;;16.20;99.90;16.30;98809.00;;;;4866886;29;87340;-63
2022/07/08 00:46:17;;;;;;;4.82;1.90;;;16.20;99.90;16.30;98818.00;;;;4866210;29;87150;-63
2022/07/08 00:48:44;;;;;;;4.97;1.75;;;16.20;99.90;16.40;98820.00;;;;4866403;29;88817;-63
2022/07/08 00:51:13;;;;;;;2.90;1.75;;;16.30;99.90;16.40;98810.00;;;;4866123;29;87915;-61
2022/07/08 00:53:42;;;;;;;6.07;1.95;;;16.30;99.90;16.40;98809.00;;;;4866176;29;86941;-61
2022/07/08 00:56:10;;;;;;;4.68;2.00;;;16.30;99.90;16.40;98818.00;;;;4851254;29;86257;-61
2022/07/08 00:58:37;;;;;;;3.35;1.70;;;16.30;99.90;16.40;98810.00;;;;4850409;29;87567;-62
2022/07/08 01:01:05;;;;;;;6.30;2.10;;;16.30;99.90;16.50;98817.00;;;;4850299;29;87334;-62
2022/07/08 01:03:31;;;;;;;2.78;1.70;;;16.40;99.90;16.50;98806.00;;;;4866704;29;87801;-62
2022/07/08 01:05:57;;;;;;;3.60;1.90;;;16.40;99.90;16.60;98824.00;;;;4850780;29;87074;-62
2022/07/08 01:08:24;;;;;;;2.35;1.20;;;16.40;99.90;16.60;98811.00;;;;4866362;29;87596;-62
2022/07/08 01:10:51;;;;;;;2.60;1.55;;;16.40;99.90;16.60;98809.00;;;;4866956;29;88581;-62
2022/07/08 01:13:18;;;;;;;3.60;1.40;;;16.40;99.90;16.60;98809.00;;;;4835053;29;87547;-62
2022/07/08 01:15:45;;;;;;;4.32;1.60;;;16.50;99.90;16.60;98812.00;;;;4850224;29;87629;-62
2022/07/08 01:18:41;;;;;;;4.07;1.60;;;16.40;99.90;16.60;98821.00;;;;4866253;29;88785;-62
2022/07/08 01:21:08;;;;;;;3.30;1.30;;;16.50;99.90;16.60;98812.00;;;;4851028;29;87394;-62
2022/07/08 01:23:34;;;;;;;1.88;1.48;;;16.50;99.90;16.60;98822.00;;;;4866822;29;86991;-62
2022/07/08 01:26:11;;;;;;;3.58;1.50;;;16.50;99.90;16.70;98820.00;;;;4866950;29;87088;-62
2022/07/08 01:28:41;;;;;;;6.22;1.60;;;16.50;99.90;16.70;98816.00;;;;4865835;29;89543;-62
2022/07/08 01:31:07;;;;;;;3.83;1.60;;;16.50;99.90;16.70;98822.00;;;;4849944;29;90294;-62
2022/07/08 01:33:33;;;;;;;3.70;1.75;;;16.50;99.90;16.70;98826.00;;;;4866987;29;87066;-62
2022/07/08 01:35:59;;;;;;;2.90;1.35;;;16.50;99.90;16.70;98835.00;;;;4867023;29;87012;-62
2022/07/08 01:38:25;;;;;;;4.25;1.30;;;16.50;99.90;16.70;98829.00;;;;4865299;29;88708;-62
2022/07/08 01:40:52;;;;;;;5.50;1.50;;;16.50;99.90;16.70;98837.00;;;;4865846;29;87461;-63
2022/07/08 01:43:18;;;;;;;3.15;1.20;;;16.60;99.90;16.70;98834.00;;;;4865952;29;87108;-62
2022/07/08 01:45:44;;;;;;;5.55;1.50;;;16.60;99.90;16.70;98837.00;;;;4866038;29;86227;-62
2022/07/08 01:48:10;;;;;;;1.50;1.25;;;16.60;99.90;16.80;98844.00;;;;4848582;29;87570;-62
2022/07/08 01:50:36;;;;;;;3.55;1.30;;;16.60;99.90;16.80;98834.00;;;;4864814;29;87291;-62
2022/07/08 01:53:03;;;;;;;6.75;1.80;;;16.60;99.90;16.80;98834.00;;;;4865344;29;87970;-62
2022/07/08 01:55:29;;;;;;;3.25;1.50;;;16.70;99.90;16.80;98840.00;;;;4865995;29;87006;-61
2022/07/08 01:57:55;;;;;;;4.45;1.40;;;16.70;99.90;16.80;98839.00;;;;4866205;29;87594;-62
2022/07/08 02:00:21;;;;;;;7.70;1.70;;;16.60;99.90;16.80;98829.00;;;;4865402;29;87333;-62
2022/07/08 02:02:47;;;;;;;2.70;1.30;;;16.60;99.90;16.80;98826.00;;;;4866299;29;86933;-62
2022/07/08 02:05:15;;;;;;;3.72;1.42;;;16.70;99.90;16.80;98831.00;;;;4866588;29;87094;-62
2022/07/08 02:07:42;;;;;;;3.58;1.30;;;16.70;99.90;16.80;98827.00;;;;4865960;29;87424;-62
2022/07/08 02:10:09;;;;;;;3.17;1.63;;;16.60;99.90;16.90;98829.00;;;;4866181;29;87382;-63
2022/07/08 02:12:36;;;;;;;7.10;1.80;;;16.80;99.90;17.00;98832.00;;;;4866183;29;86934;-63
2022/07/08 02:15:07;;;;;;;5.68;1.40;;;16.80;99.90;17.00;98830.00;;;;4866306;29;87656;-62
2022/07/08 02:17:40;;;;;;;3.60;1.45;;;16.90;99.90;17.10;98842.00;;;;4865554;29;88385;-62
2022/07/08 02:20:10;;;;;;;4.10;1.70;;;16.90;99.90;17.10;98848.00;;;;4864857;29;90283;-62
2022/07/08 02:22:37;;;;;;;7.50;1.50;;;17.00;99.90;17.10;98840.00;;;;4866930;29;87024;-61
2022/07/08 02:25:04;;;;;;;2.78;1.40;;;17.00;99.90;17.20;98852.00;;;;4865634;29;86939;-62
2022/07/08 02:27:31;;;;;;;1.85;1.30;;;17.00;99.90;17.20;98837.00;;;;4864900;29;88654;-62
2022/07/08 02:29:57;;;;;;;3.88;1.50;;;17.00;99.90;17.10;98851.00;;;;4865290;29;87508;-63
2022/07/08 02:32:23;;;;;;;5.20;1.40;;;16.90;99.90;17.10;98852.00;;;;4866042;29;86981;-62
2022/07/08 02:34:49;;;;;;;5.13;1.70;;;16.90;99.90;17.10;98846.00;;;;4865453;29;86343;-63
2022/07/08 02:37:16;;;;;;;4.72;1.35;;;16.90;99.90;17.10;98853.00;;;;4865252;29;87771;-62
2022/07/08 02:39:42;;;;;;;8.40;2.03;;;16.90;99.90;17.20;98844.00;;;;4864789;29;87322;-63
2022/07/08 02:42:09;;;;;;;3.83;1.80;;;17.00;99.90;17.20;98848.00;;;;4865242;29;88315;-61
2022/07/08 02:44:36;;;;;;;3.17;1.52;;;17.00;99.90;17.10;98862.00;;;;4865325;29;87041;-61
2022/07/08 02:47:05;;;;;;;4.72;1.40;;;16.90;99.90;17.10;98868.00;;;;4864672;29;87724;-61
2022/07/08 02:49:31;;;;;;;2.00;1.50;;;16.90;99.90;17.10;98862.00;;;;4853774;29;87489;-62
2022/07/08 02:51:57;;;;;;;3.80;1.30;;;16.90;99.90;17.10;98870.00;;;;4866192;29;86973;-61
2022/07/08 02:54:24;;;;;;;3.45;1.67;;;16.90;99.90;17.10;98879.00;;;;4868631;29;87531;-63
2022/07/08 02:56:50;;;;;;;7.38;1.60;;;17.00;99.90;17.10;98884.00;;;;4868968;29;87001;-63
2022/07/08 02:59:16;;;;;;;4.95;1.55;;;17.00;99.90;17.20;98880.00;;;;4867842;29;87574;-62
2022/07/08 03:01:42;;;;;;;5.78;1.55;;;17.00;99.90;17.30;98877.00;;;;4868476;29;87032;-62
2022/07/08 03:04:08;;;;;;;2.33;1.35;;;17.10;99.90;17.40;98891.00;;;;4868757;29;87395;-63
2022/07/08 03:06:34;;;;;;;3.45;1.35;;;17.10;99.90;17.40;98891.00;;;;4867865;29;88694;-62
2022/07/08 03:09:00;;;;;;;1.15;1.05;;;17.30;99.90;17.40;98889.00;;;;4868065;29;89453;-61
2022/07/08 03:11:27;;;;;;;4.63;1.52;;;17.20;99.90;17.50;98889.00;;;;4868556;29;86890;-61
2022/07/08 03:13:53;;;;;;;5.38;1.67;;;17.30;99.90;17.50;98889.00;;;;4869329;29;87304;-62
2022/07/08 03:16:20;;;;;;;3.80;1.52;;;17.30;99.90;17.60;98893.00;;;;4868173;29;88848;-62
2022/07/08 03:18:46;;;;;;;4.07;1.40;;;17.40;99.90;17.70;98897.00;;;;4868476;29;87530;-61
2022/07/08 03:21:12;;;;;;;2.15;1.50;;;17.50;99.90;17.80;98908.00;;;;4868125;29;87501;-65
2022/07/08 03:23:38;;;;;;;2.72;1.15;;;17.60;99.90;17.80;98906.00;;;;4869161;29;86718;-62
2022/07/08 03:26:04;;;;;;;2.53;1.52;;;17.60;99.90;17.70;98903.00;;;;4868001;29;87673;-63
2022/07/08 03:28:30;;;;;;;3.80;1.30;;;17.50;99.90;17.70;98913.00;;;;4868115;29;87356;-62
2022/07/08 03:30:57;;;;;;;3.42;1.48;;;17.50;99.90;17.60;98906.00;;;;4867572;29;87925;-61
2022/07/08 03:33:23;;;;;;;5.22;1.85;;;17.40;99.90;17.70;98908.00;;;;4867775;29;87161;-63
2022/07/08 03:35:50;;;;;;;3.05;1.48;;;17.50;99.90;17.60;98915.00;;;;4867441;29;89471;-63
2022/07/08 03:38:17;;;;;;;3.85;1.77;;;17.40;99.90;17.60;98922.00;;;;4867622;29;88525;-62
2022/07/08 03:43:28;;;;;;;4.78;1.40;;;17.60;99.90;17.90;98922.00;;;;4867392;29;87342;-66
2022/07/08 03:45:54;;;;;;;3.53;1.35;;;17.60;99.90;17.90;98918.00;;;;4867038;29;88951;-62
2022/07/08 03:48:21;;;;;;;3.38;1.50;;;17.70;99.90;17.90;98909.00;;;;4868258;29;87520;-61
2022/07/08 03:50:47;;;;;;;5.60;1.73;;;17.70;99.90;18.10;98922.00;;;;4868002;29;87037;-63
2022/07/08 03:53:13;;;;;;;3.38;1.38;;;17.90;99.90;18.30;98916.00;;;;4866839;29;86976;-62
2022/07/08 03:55:39;;;;;;;2.20;1.40;;;18.10;99.90;18.60;98915.00;;;;4865074;29;88756;-63
2022/07/08 03:58:05;;;;;;;5.13;1.52;;;18.30;99.90;18.70;98913.00;;;;4867137;29;88085;-61
2022/07/08 04:00:32;;;;;;;4.03;1.20;;;18.50;99.90;18.80;98917.00;;;;4866686;29;88971;-61
2022/07/08 04:02:58;;;;;;;4.13;2.17;;;18.60;99.90;18.80;98920.00;;;;4866852;29;87040;-61
2022/07/08 04:05:24;;;;;;;3.17;1.40;;;18.50;99.90;18.50;98932.00;;;;4867060;29;87766;-62
2022/07/08 04:07:50;;;;;;;5.13;1.80;;;18.30;99.90;18.60;98922.00;;;;4868120;29;87876;-61
2022/07/08 04:10:16;;;;;;;4.50;1.80;;;18.30;99.90;18.70;98916.00;;;;4867990;29;87412;-61
2022/07/08 04:12:43;;;;;;;2.33;1.63;;;18.40;99.90;19.10;98920.00;;;;4864028;29;87423;-62
2022/07/08 04:15:09;;;;;;;4.15;1.48;;;18.80;99.90;19.40;98928.00;;;;4866421;29;89227;-62
2022/07/08 04:17:36;;;;;;;2.22;1.30;;;19.00;99.90;19.80;98921.00;;;;4867404;29;87375;-62
2022/07/08 04:20:03;;;;;;;2.28;1.42;;;19.40;99.90;20.10;98925.00;;;;4850038;29;88135;-62
2022/07/08 04:22:29;;;;;;;4.50;1.50;;;19.80;99.90;20.20;98914.00;;;;4867033;29;87135;-62
2022/07/08 04:24:55;;;;;;;5.68;1.95;;;19.90;99.90;20.40;98919.00;;;;4866424;29;87739;-63
2022/07/08 04:27:21;;;;;;;2.00;1.50;;;20.10;99.90;20.40;98925.00;;;;4867379;29;87030;-64
2022/07/08 04:29:47;;;;;;;15.05;2.22;;;20.20;99.90;21.10;98918.00;;;;4850410;29;86992;-63
2022/07/08 04:32:13;;;;;;;3.25;1.83;;;20.70;99.90;22.00;98920.00;;;;4867094;29;86986;-63
2022/07/08 04:34:39;;;;;;;5.00;1.50;;;21.50;99.90;22.90;98921.00;;;;4866604;29;88894;-63
2022/07/08 04:37:06;;;;;;;5.53;1.92;;;22.20;99.90;22.50;98928.00;;;;4867415;29;87333;-62
2022/07/08 04:39:32;;;;;;;5.28;1.70;;;21.90;99.90;21.90;98930.00;;;;4866459;29;87049;-67
2022/07/08 04:42:01;;;;;;;3.60;2.15;;;21.30;99.90;21.50;98930.00;;;;4866555;29;87123;-64
2022/07/08 04:44:27;;;;;;;7.18;2.00;;;21.00;99.90;21.00;98935.00;;;;4865608;29;88238;-66
2022/07/08 04:46:53;;;;;;;5.38;1.73;;;20.50;99.90;20.70;98938.00;;;;4866571;29;89502;-66
2022/07/08 04:49:19;;;;;;;7.78;2.58;;;20.30;99.90;20.40;98931.00;;;;4866370;29;87059;-63
2022/07/08 04:51:45;;;;;;;9.43;2.10;;;20.00;99.90;20.30;98926.00;;;;4866372;29;87145;-67
2022/07/08 04:54:11;;;;;;;5.07;1.88;;;19.90;99.90;20.40;98927.00;;;;4865932;29;87548;-64
2022/07/08 04:56:38;;;;;;;2.70;1.77;;;20.00;99.90;20.90;98924.00;;;;4865720;29;87797;-65
2022/07/08 04:59:04;;;;;;;2.10;1.55;;;20.50;99.90;21.10;98917.00;;;;4866326;29;87125;-65
2022/07/08 05:01:30;;;;;;;7.05;2.08;;;20.60;99.90;21.00;98924.00;;;;4834306;29;86339;-65
2022/07/08 05:03:57;;;;;;;6.93;2.13;;;20.60;99.90;20.60;98924.00;;;;4866318;29;87799;-64
2022/07/08 05:06:23;;;;;;;4.15;1.90;;;20.20;99.90;20.50;98919.00;;;;4866098;29;87336;-64
2022/07/08 05:08:49;;;;;;;3.17;1.90;;;20.20;99.90;20.40;98914.00;;;;4866359;29;88018;-65
2022/07/08 05:11:15;;;;;;;3.17;2.08;;;20.10;99.90;21.10;98927.00;;;;4866189;29;87033;-66
2022/07/08 05:13:42;;;;;;;3.92;1.33;;;20.60;99.90;22.00;98924.00;;;;4866065;29;87597;-65
2022/07/08 05:16:08;;;;;;;2.47;1.30;;;21.20;99.90;22.40;98933.00;;;;4863765;29;88491;-64
2022/07/08 05:18:34;;;;;;;3.35;1.60;;;21.70;99.90;21.50;98934.00;;;;4849480;29;87472;-65
2022/07/08 05:21:00;;;;;;;2.90;1.35;;;21.00;99.90;21.50;98940.00;;;;4865548;29;87060;-65
2022/07/08 05:23:26;;;;;;;1.88;1.60;;;21.00;99.90;21.40;98937.00;;;;4866007;29;88898;-62
2022/07/08 05:25:52;;;;;;;1.90;1.10;;;21.00;99.90;21.30;98934.00;;;;4849679;29;88247;-65
2022/07/08 05:28:19;;;;;;;5.53;1.38;;;20.90;99.90;21.30;98936.00;;;;4850190;29;87000;-64
2022/07/08 05:30:45;;;;;;;3.67;1.20;;;20.80;99.90;21.30;98948.00;;;;4866595;29;87064;-66
2022/07/08 05:33:11;;;;;;;4.30;1.50;;;20.90;99.90;20.50;98939.00;;;;4866474;29;88636;-66
2022/07/08 05:35:37;;;;;;;2.25;1.00;;;20.20;99.90;20.10;98945.00;;;;4866294;29;88932;-62
2022/07/08 05:38:03;;;;;;;9.45;1.40;;;19.80;99.90;20.00;98943.00;;;;4866490;29;87470;-62
2022/07/08 05:40:29;;;;;;;3.85;1.33;;;19.70;99.90;19.90;98947.00;;;;4864922;29;87179;-63
2022/07/08 05:42:56;;;;;;;5.55;1.15;;;19.50;99.90;20.00;98949.00;;;;4865014;29;88781;-63
2022/07/08 05:45:22;;;;;;;4.22;1.35;;;19.60;99.90;19.90;98951.00;;;;4848438;29;87638;-62
2022/07/08 05:47:48;;;;;;;6.95;1.23;;;19.50;99.90;19.80;98949.00;;;;4864980;29;88027;-62
2022/07/08 05:50:14;;;;;;;1.52;1.38;;;19.50;99.90;19.60;98950.00;;;;4865569;29;86575;-62
2022/07/08 05:52:40;;;;;;;4.50;1.77;;;19.30;99.90;19.50;98966.00;;;;4846520;29;87893;-62
2022/07/08 05:55:07;;;;;;;4.47;1.42;;;19.20;99.90;19.60;98965.00;;;;4864124;29;88491;-62
2022/07/08 05:57:33;;;;;;;5.72;1.27;;;19.30;99.90;19.80;98959.00;;;;4864640;29;87979;-62
2022/07/08 05:59:59;;;;;;;2.42;1.42;;;19.40;99.90;19.50;98966.00;;;;4865274;29;87142;-63
2022/07/08 06:02:25;;;;;;;4.68;1.40;;;19.30;99.90;19.70;98953.00;;;;4847585;29;87582;-62
2022/07/08 06:04:52;;;;;;;2.20;1.27;;;19.30;99.90;19.90;98960.00;;;;4862613;29;87272;-62
2022/07/08 06:07:18;;;;;;;2.65;1.35;;;19.50;99.90;19.80;98953.00;;;;4865040;29;87028;-62
2022/07/08 06:09:44;;;;;;;2.30;1.13;;;19.50;99.90;20.00;98960.00;;;;4865678;29;87002;-62
2022/07/08 06:12:11;;;;;;;1.90;1.00;;;19.60;99.90;20.30;98964.00;;;;4865268;29;88846;-62
2022/07/08 06:14:37;;;;;;;7.07;1.52;;;19.90;99.90;20.00;98962.00;;;;4865734;29;87330;-62
2022/07/08 06:17:03;;;;;;;5.07;1.23;;;19.70;99.90;20.00;98957.00;;;;4865412;29;87417;-62
2022/07/08 06:19:30;;;;;;;4.97;2.10;;;19.80;99.90;20.40;98960.00;;;;4865438;29;87045;-62
2022/07/08 06:21:56;;;;;;;2.97;1.50;;;20.10;99.90;20.90;98970.00;;;;4847659;29;88705;-63
2022/07/08 06:24:23;;;;;;;3.05;1.60;;;20.30;99.90;21.00;98959.00;;;;4864718;29;87385;-62
2022/07/08 06:26:49;;;;;;;3.30;1.58;;;20.60;99.90;21.00;98969.00;;;;4866236;29;86989;-62
2022/07/08 06:29:15;;;;;;;1.80;1.08;;;20.60;99.90;21.00;98972.00;;;;4868689;29;87030;-62
2022/07/08 06:31:41;;;;;;;2.45;1.27;;;20.60;99.90;20.60;98969.00;;;;4869488;29;87667;-62
2022/07/08 06:34:07;;;;;;;8.10;1.42;;;20.30;99.90;20.40;98972.00;;;;4868295;29;87560;-62
2022/07/08 06:36:33;;;;;;;5.13;1.83;;;20.20;99.90;20.20;98967.00;;;;4868483;29;87660;-62
2022/07/08 06:39:00;;;;;;;3.20;1.35;;;19.90;99.90;20.50;98969.00;;;;4868490;29;87321;-62
2022/07/08 06:41:26;;;;;;;5.40;1.70;;;20.20;99.90;20.70;98977.00;;;;4868789;29;87620;-64
2022/07/08 06:43:52;;;;;;;7.55;1.58;;;20.30;99.90;20.60;98976.00;;;;4868446;29;87169;-63
2022/07/08 06:46:18;;;;;;;5.47;1.42;;;20.20;99.90;20.50;98971.00;;;;4867480;29;87919;-62
2022/07/08 06:48:45;;;;;;;3.92;1.58;;;20.20;99.90;20.80;98968.00;;;;4868699;29;87245;-63
2022/07/08 06:51:11;;;;;;;3.75;1.48;;;20.60;99.90;21.20;98967.00;;;;4868273;29;87604;-62
2022/07/08 06:56:37;;;;;;;3.75;1.88;;;21.20;99.90;21.60;98978.00;;;;4845840;29;87711;-62
2022/07/08 06:59:06;;;;;;;3.03;1.27;;;21.20;99.90;21.70;98972.00;;;;4868368;29;87113;-61
2022/07/08 07:01:32;;;;;;;2.38;1.20;;;21.20;99.90;22.00;98976.00;;;;4867732;29;87906;-62
2022/07/08 07:03:58;;;;;;;4.20;1.40;;;21.60;99.90;22.00;98984.00;;;;4868376;29;88483;-61
2022/07/08 07:06:24;;;;;;;2.92;1.63;;;21.50;99.90;21.40;98974.00;;;;4868175;29;87048;-61
2022/07/08 07:08:51;;;;;;;2.70;1.30;;;20.90;99.90;21.20;98968.00;;;;4868250;29;87014;-61
2022/07/08 07:11:18;;;;;;;2.50;1.30;;;20.90;99.90;20.90;98969.00;;;;4867645;29;88355;-64
2022/07/08 07:13:45;;;;;;;7.85;1.48;;;20.60;99.90;21.00;98968.00;;;;4868515;29;89074;-64
2022/07/08 07:16:12;;;;;;;4.28;1.48;;;20.70;99.90;21.00;98972.00;;;;4868341;29;87523;-62
2022/07/08 07:18:38;;;;;;;4.60;1.20;;;20.70;99.90;21.30;98966.00;;;;4868157;29;87056;-61
2022/07/08 07:21:04;;;;;;;4.28;1.00;;;21.00;99.90;21.50;98963.00;;;;4867455;29;87727;-63
2022/07/08 07:23:30;;;;;;;5.35;1.42;;;21.10;99.90;21.40;98973.00;;;;4867422;29;88700;-63
2022/07/08 07:25:57;;;;;;;6.60;1.48;;;21.00;99.90;21.50;98966.00;;;;4866709;28;87528;-62
2022/07/08 07:28:23;;;;;;;2.97;1.20;;;21.20;99.90;21.90;98962.00;;;;4869241;29;86270;-61
2022/07/08 07:30:49;;;;;;;3.15;1.02;;;21.60;99.90;22.20;98963.00;;;;4867290;29;87609;-62
2022/07/08 07:33:15;;;;;;;2.40;1.25;;;21.90;99.90;22.30;98969.00;;;;4867315;29;87662;-62
2022/07/08 07:35:41;;;;;;;3.47;1.15;;;21.90;99.90;22.60;98981.00;;;;4866876;29;88754;-63
2022/07/08 07:38:08;;;;;;;6.63;1.55;;;22.00;99.90;22.90;98989.00;;;;4867559;29;87055;-63
2022/07/08 07:40:34;;;;;;;5.03;1.05;;;22.40;99.90;22.70;98990.00;;;;4866892;29;87912;-63
2022/07/08 07:43:00;;;;;;;1.58;0.90;;;22.20;99.90;22.30;98988.00;;;;4866741;29;87572;-63
2022/07/08 07:45:26;;;;;;;1.98;1.17;;;21.70;99.90;22.60;98977.00;;;;4867534;29;87046;-63
2022/07/08 07:47:52;;;;;;;3.92;1.42;;;22.30;99.90;22.70;98976.00;;;;4868474;29;88084;-62
2022/07/08 07:50:18;;;;;;;3.95;1.30;;;22.40;99.90;21.80;98976.00;;;;4866829;29;87610;-64
2022/07/08 07:52:45;;;;;;;4.78;1.30;;;21.60;99.90;21.70;98973.00;;;;4866576;29;87420;-64
2022/07/08 07:55:11;;;;;;;2.30;1.50;;;21.40;99.90;21.90;98991.00;;;;4867210;29;87146;-61
2022/07/08 07:57:37;;;;;;;2.65;1.23;;;21.60;99.90;22.10;98980.00;;;;4867666;29;87486;-63
2022/07/08 08:00:09;;;;;;;3.40;1.40;;;21.70;99.90;21.90;98976.00;;;;4866540;29;88047;-63
2022/07/08 08:02:39;;;;;;;3.55;1.60;;;21.50;99.90;21.80;98985.00;;;;4867355;29;88258;-62
2022/07/08 08:05:06;;;;;;;3.97;1.70;;;21.50;99.90;21.70;98974.00;;;;4867488;29;87166;-63
2022/07/08 08:07:32;;;;;;;4.80;1.20;;;21.50;99.90;22.00;98976.00;;;;4867310;29;86767;-63
2022/07/08 08:09:58;;;;;;;5.78;1.20;;;21.70;99.90;22.50;98981.00;;;;4867348;29;88821;-63
2022/07/08 08:12:24;;;;;;;1.90;1.10;;;22.10;99.90;22.80;98987.00;;;;4850359;29;87657;-63
2022/07/08 08:14:50;;;;;;;2.47;1.20;;;22.30;99.90;22.50;98978.00;;;;4867808;29;86921;-63
2022/07/08 08:17:17;;;;;;;6.50;1.48;;;22.10;99.90;22.40;98974.00;;;;4868174;29;86662;-61
2022/07/08 08:19:43;;;;;;;4.35;1.63;;;22.10;99.90;22.30;98986.00;;;;4867225;29;87512;-63
2022/07/08 08:22:09;;;;;;;3.60;1.48;;;22.00;99.90;22.00;98975.00;;;;4849703;29;87232;-63
2022/07/08 08:24:35;;;;;;;5.03;1.90;;;21.70;99.90;21.60;98988.00;;;;4866753;29;87898;-62
2022/07/08 08:27:04;;;;;;;3.90;1.52;;;21.40;99.90;22.20;98984.00;;;;4867597;29;87123;-63
2022/07/08 08:29:30;;;;;;;4.55;1.67;;;21.90;99.90;22.50;98974.00;;;;4849391;29;90290;-63
2022/07/08 08:31:59;;;;;;;4.03;1.60;;;22.30;99.90;22.40;98981.00;;;;4867167;29;87362;-63
2022/07/08 08:34:25;;;;;;;2.13;1.20;;;22.10;99.90;22.60;98974.00;;;;4835178;29;87053;-63
2022/07/08 08:36:52;;;;;;;3.75;1.38;;;22.20;99.90;22.30;98986.00;;;;4867272;29;87258;-63
2022/07/08 08:39:19;;;;;;;1.98;0.93;;;21.90;99.90;21.30;98974.00;;;;4831754;29;88504;-63
2022/07/08 08:41:46;;;;;;;9.73;1.25;;;21.10;99.90;21.30;98985.00;;;;4865136;29;88749;-63
2022/07/08 08:44:13;;;;;;;11.75;1.40;;;21.10;99.90;21.50;98977.00;;;;4850361;29;87466;-62
2022/07/08 08:46:43;;;;;;;4.38;1.52;;;21.30;99.90;21.90;98972.00;;;;4866056;29;87168;-62
2022/07/08 08:49:10;;;;;;;2.27;1.33;;;21.70;99.90;22.20;98979.00;;;;4865001;29;88735;-62
2022/07/08 08:51:39;;;;;;;6.30;1.52;;;21.90;99.90;22.40;98982.00;;;;4866189;29;88857;-63
2022/07/08 08:54:06;;;;;;;3.05;1.00;;;22.20;99.90;22.70;98991.00;;;;4866821;29;87202;-64
2022/07/08 08:56:34;;;;;;;4.38;1.25;;;22.30;99.90;22.20;99005.00;;;;4866709;29;87013;-62
2022/07/08 08:59:01;;;;;;;4.47;1.23;;;21.90;99.90;21.60;98998.00;;;;4865858;29;88675;-64
2022/07/08 09:01:30;;;;;;;2.90;1.30;;;21.40;99.90;21.80;98998.00;;;;4866017;29;87914;-63
2022/07/08 09:03:59;;;;;;;5.97;1.70;;;21.50;99.90;21.70;99016.00;;;;4866565;29;87462;-63
2022/07/08 09:06:26;;;;;;;4.32;1.27;;;21.40;99.90;21.60;98998.00;;;;4866503;29;86207;-62
2022/07/08 09:08:52;;;;;;;3.78;1.55;;;21.40;99.90;21.80;99003.00;;;;4866401;29;86978;-63
2022/07/08 09:11:19;;;;;;;2.53;1.25;;;21.60;99.90;22.10;99001.00;;;;4866355;29;87376;-64
2022/07/08 09:14:20;;;;;;;4.47;1.77;;;21.80;99.90;22.20;99012.00;;;;4866151;29;88043;-63
2022/07/08 09:17:13;;;;;;;3.22;1.40;;;21.90;99.90;22.10;99005.00;;;;4866467;29;86998;-63
2022/07/08 09:19:42;;;;;;;3.33;1.02;;;21.70;99.90;22.30;98997.00;;;;4865737;29;87040;-63
2022/07/08 09:22:09;;;;;;;4.50;1.45;;;22.10;99.90;22.50;99002.00;;;;4865429;29;88415;-63
2022/07/08 09:24:38;;;;;;;1.63;1.10;;;22.30;99.90;22.90;99004.00;;;;4866043;29;86990;-63
2022/07/08 09:27:07;;;;;;;6.10;1.70;;;22.50;99.90;23.20;99007.00;;;;4866424;29;87005;-63
2022/07/08 09:29:35;;;;;;;4.35;1.60;;;22.80;99.90;22.90;99014.00;;;;4866274;29;88879;-62
2022/07/08 09:32:15;;;;;;;4.78;1.80;;;22.60;99.90;22.70;99008.00;;;;4850124;29;87327;-63
2022/07/08 09:34:43;;;;;;;2.58;1.40;;;22.40;99.90;22.80;99010.00;;;;4865662;29;87000;-63
2022/07/08 09:37:15;;;;;;;3.60;1.42;;;22.50;99.90;22.50;99020.00;;;;4866422;29;87026;-62
2022/07/08 09:39:43;;;;;;;3.33;1.48;;;22.20;99.90;22.70;99013.00;;;;4865626;29;89738;-63
2022/07/08 09:42:11;;;;;;;3.20;1.40;;;22.40;99.90;22.90;99015.00;;;;4866303;29;89429;-63
2022/07/08 09:44:38;;;;;;;3.25;1.45;;;22.60;99.90;23.10;99012.00;;;;4848500;29;87056;-62
2022/07/08 09:47:15;;;;;;;2.08;1.20;;;22.70;99.90;23.10;99014.00;;;;4865712;29;87259;-63
2022/07/08 09:49:43;;;;;;;9.05;2.00;;;22.70;99.90;23.30;99010.00;;;;4864965;29;87974;-63
2022/07/08 09:52:11;;;;;;;4.60;1.35;;;23.00;99.90;23.60;98997.00;;;;4848478;29;87637;-62
2022/07/08 09:54:38;;;;;;;6.18;1.40;;;23.20;99.90;23.20;99007.00;;;;4864990;29;87165;-62
2022/07/08 09:57:07;;;;;;;3.70;1.25;;;22.80;99.90;22.40;98997.00;;;;4865599;29;86269;-62
2022/07/08 09:59:35;;;;;;;9.20;1.85;;;22.10;99.90;22.20;99012.00;;;;4865350;29;88678;-62
2022/07/08 10:02:04;;;;;;;2.58;1.40;;;21.90;99.90;22.10;98999.00;;;;4865290;29;88587;-62
2022/07/08 10:04:31;;;;;;;3.15;1.58;;;21.90;99.90;22.50;98991.00;;;;4863907;29;88639;-62
2022/07/08 10:06:58;;;;;;;5.35;2.03;;;22.20;99.90;22.60;98989.00;;;;4862936;29;87143;-62
2022/07/08 10:09:27;;;;;;;3.67;1.42;;;22.30;99.90;22.80;98991.00;;;;4864916;29;87797;-62
2022/07/08 10:11:53;;;;;;;4.40;1.40;;;22.60;99.90;22.90;98990.00;;;;4848684;29;87241;-64
2022/07/08 10:14:20;;;;;;;4.80;1.30;;;22.70;99.90;22.90;98994.00;;;;4864409;29;86987;-63
2022/07/08 10:16:48;;;;;;;3.55;1.48;;;22.60;99.90;23.00;98991.00;;;;4865100;29;86898;-62
2022/07/08 10:19:31;;;;;;;3.13;1.58;;;22.60;99.90;22.30;98998.00;;;;4864413;29;87385;-61
2022/07/08 10:21:58;;;;;;;3.78;1.33;;;22.00;99.90;22.20;98989.00;;;;4865195;29;87230;-64
2022/07/08 10:24:28;;;;;;;3.20;1.38;;;21.90;99.90;22.30;98982.00;;;;4848286;29;87418;-62
2022/07/08 10:26:59;;;;;;;4.10;1.48;;;22.00;99.90;22.40;98977.00;;;;4862157;29;87106;-62
2022/07/08 10:29:29;;;;;;;;;;;22.10;99.90;22.20;98994.00;;;;4865179;29;89202;-63
2022/07/08 10:31:56;;;;;;;3.17;1.30;;;21.90;99.90;22.00;98997.00;;;;4865547;29;87901;-61
2022/07/08 10:34:32;;;;;;;5.05;1.60;;;21.80;99.90;22.00;98990.00;;;;4864611;29;87167;-63
2022/07/08 10:36:58;;;;;;;2.83;1.33;;;21.80;99.90;22.10;98982.00;;;;4864383;29;87022;-63
2022/07/08 10:39:38;;;;;;;3.95;1.40;;;21.90;99.90;22.40;98978.00;;;;4865191;29;87803;-62
2022/07/08 10:42:06;;;;;;;6.05;1.23;;;22.20;99.90;22.80;98981.00;;;;4865000;29;87582;-61
2022/07/08 10:44:44;;;;;;;4.95;1.73;;;22.50;99.90;23.20;98977.00;;;;4864555;29;87003;-64
2022/07/08 10:47:32;;;;;;;4.40;1.40;;;22.90;99.90;23.20;98984.00;;;;4864966;29;86199;-62
2022/07/08 10:50:07;;;;;;;4.13;1.40;;;23.00;99.90;23.50;98976.00;;;;4865305;29;87774;-63
2022/07/08 10:52:43;;;;;;;1.85;1.52;;;23.20;99.90;23.50;98973.00;;;;4865134;29;88423;-61
2022/07/08 10:55:15;;;;;;;4.20;1.52;;;23.10;99.90;23.30;98972.00;;;;4864881;29;88277;-64
2022/07/08 10:57:58;;;;;;;1.98;1.20;;;23.00;99.90;23.30;98990.00;;;;4864575;29;87621;-67
2022/07/08 11:00:25;;;;;;;3.05;1.30;;;22.90;99.90;23.10;98975.00;;;;4863994;29;88918;-65
2022/07/08 11:02:53;;;;;;;3.97;1.58;;;22.80;99.90;23.00;98986.00;;;;4864667;29;87458;-65